• Join FlightAware (Why Join?)
  • Login
  • US Flag 
08:16AM EDT


 

Airport Tracker/Info


-or-


 

Live Flight TrackerFlight Track Log ✈ UAL256 ✈ 05-May-2013 ✈ KIAD - KLAX

Flight Track Log - Related Links

Times and Time Zones

All times are in EDT time to prevent confusion due to time zone crossing. See the UAL256 flight status page for this flight to view local times or setup timezone preferences in your user account.

Time Position Orientation Groundspeed Altitude Reporting Facility
EDT Latitude Longitude Course Direction KTS MPH feet Rate Location/Type
03:07PM 38.9167 -77.4500 270° West 169 194 1,500  Level Potomac TRACON
03:08PM 38.8667 -77.4667 195° South 231 266 2,700 1,740 Climbing Potomac TRACON
03:09PM 38.8167 -77.5333 226° Southwest 265 305 5,000 2,520 Climbing Potomac TRACON
03:10PM 38.8025 -77.8499 228° Southwest  Level FlightAware Approximate
03:10PM 38.7667 -77.6167 232° Southwest 279 321 7,800  Level Potomac TRACON
03:11PM 38.7971 -77.9717 288° West  Level FlightAware Approximate
03:12PM 38.8333 -78.1174 270° West  Level FlightAware Approximate
03:12PM 38.7308 -77.7764 254° West 290 334 11,000  Level Washington Center
03:13PM 38.8500 -78.2670 270° West  Level FlightAware Approximate
03:13PM 38.7703 -77.9003 292° West 318 366 12,700  Level Washington Center
03:14PM 38.8053 -78.0264 290° West 354 407 14,900 2,100 Climbing Washington Center
03:15PM 38.8422 -78.1608 289° West 381 438 16,900 1,800 Climbing Washington Center
03:16PM 38.8539 -78.2972 276° West 387 445 18,600 1,620 Climbing Washington Center
03:17PM 38.8525 -78.4411 269° West 397 457 20,200 1,440 Climbing Washington Center
03:18PM 38.8511 -78.5850 269° West 407 468 21,500 1,320 Climbing Washington Center
03:19PM 38.8492 -78.7397 269° West 419 482 22,800 1,320 Climbing Washington Center
03:20PM 38.8472 -78.8917 269° West 424 488 24,200 1,260 Climbing Washington Center
03:21PM 38.8450 -79.0461 269° West 429 494 25,400 1,080 Climbing Washington Center
03:22PM 38.8425 -79.2031 269° West 439 505 26,400 1,020 Climbing Washington Center
03:23PM 38.8397 -79.3575 269° West 444 511 27,500 960 Climbing Washington Center
03:24PM 38.8389 -79.5203 270° West 444 511 28,400 900 Climbing Washington Center
03:25PM 38.8328 -79.7011 268° West 457 526 29,400 1,260 Climbing Washington Center
03:26PM 38.8278 -79.8447 267° West 457 526 31,000 1,260 Climbing Washington Center
03:28PM 38.8183 -80.1656 268° West 427 491 33,400 900 Climbing Indianapolis Center
03:29PM 38.8147 -80.3164 268° West 425 489 34,000 240 Climbing Indianapolis Center
03:30PM 38.8097 -80.4678 268° West 424 488 34,000  Level Indianapolis Center
03:31PM 38.8058 -80.6214 268° West 432 497 34,000  Level Indianapolis Center
03:32PM 38.7994 -80.8078 268° West 435 501 34,000  Level Indianapolis Center
03:33PM 38.7947 -80.9642 268° West 439 505 34,000  Level Indianapolis Center
03:34PM 38.7897 -81.1206 268° West 441 507 34,000  Level Indianapolis Center
03:36PM 38.7807 -81.2773 266° West  Level FlightAware Approximate
03:37PM 38.7783 -81.4344 266° West 445 512 34,000  Level Indianapolis Center
03:38PM 38.7714 -81.6100 267° West 445 512 34,000  Level Indianapolis Center
03:39PM 38.7653 -81.7725 267° West 446 513 34,000  Level Indianapolis Center
03:40PM 38.7597 -81.9306 267° West 447 514 34,000  Level Indianapolis Center
03:41PM 38.7519 -82.0869 266° West 442 509 34,000  Level Indianapolis Center
03:42PM 38.7447 -82.2769 267° West 445 512 34,000  Level Indianapolis Center
03:43PM 38.7394 -82.4372 268° West 448 516 34,000  Level Indianapolis Center
03:44PM 38.7319 -82.5983 267° West 454 522 34,000  Level Indianapolis Center
03:45PM 38.7253 -82.7589 267° West 452 520 34,000  Level Indianapolis Center
03:46PM 38.7183 -82.9211 267° West 454 522 34,000  Level Indianapolis Center
03:47PM 38.7114 -83.0839 267° West 458 527 34,000  Level Indianapolis Center
03:48PM 38.7031 -83.2522 266° West 461 531 34,000  Level Indianapolis Center
03:49PM 38.6942 -83.4464 267° West 464 534 34,000  Level Indianapolis Center
03:50PM 38.6856 -83.6144 266° West 466 536 34,000 -60 Level Indianapolis Center
03:51PM 38.6767 -83.7819 266° West 468 539 33,900 -60 Descending Indianapolis Center
03:52PM 38.6686 -83.9503 267° West 469 540 33,900  Level Indianapolis Center
03:53PM 38.6592 -84.1189 266° West 472 543 33,900  Level Indianapolis Center
03:54PM 38.6514 -84.2894 267° West 476 548 34,000  Climbing Indianapolis Center
03:55PM 38.6581 -84.4622 273° West 480 552 34,000  Level Indianapolis Center
03:56PM 38.6692 -84.6608 274° West 483 556 34,000  Level Indianapolis Center
03:57PM 38.6797 -84.8328 275° West 485 558 34,000  Level Indianapolis Center
03:58PM 38.6906 -85.0061 275° West 491 565 34,000  Level Indianapolis Center
03:59PM 38.6997 -85.1808 274° West 491 565 34,000  Level Indianapolis Center
04:01PM 38.7414 -85.5308 279° West 500 575 34,000  Level Indianapolis Center
04:02PM 38.7661 -85.7439 279° West 503 579 34,000  Level Indianapolis Center
04:03PM 38.7828 -85.8964 278° West 504 580 34,000  Level Indianapolis Center
04:04PM 38.8067 -86.1106 278° West 506 582 34,000  Level Indianapolis Center
04:05PM 38.8267 -86.2892 278° West 506 582 34,000  Level Indianapolis Center
04:07PM 38.8458 -86.4669 278° West 506 582 34,000  Level Indianapolis Center
04:08PM 38.8644 -86.6447 278° West 504 580 34,000  Level Indianapolis Center
04:09PM 38.8831 -86.8231 278° West 506 582 34,000  Level Indianapolis Center
04:10PM 38.9025 -87.0014 278° West 507 583 34,000  Level Indianapolis Center
04:11PM 38.9239 -87.2147 277° West 505 581 34,000  Level Indianapolis Center
04:12PM 38.9417 -87.3947 277° West 510 587 34,000  Level Indianapolis Center
04:14PM 38.9808 -87.7919 277° West 509 586 34,000  Level Kansas City Center
04:15PM 38.9936 -87.9361 277° West 508 585 34,000  Level Indianapolis Center
04:16PM 39.0183 -88.1144 280° West 508 585 34,000  Level Indianapolis Center
04:17PM 39.0458 -88.2936 281° West 507 583 34,000  Level Indianapolis Center
04:18PM 39.0783 -88.5078 281° West 508 585 34,000  Level Indianapolis Center
04:18PM 39.0819 -88.5450 277° West 507 583 34,000  Level Kansas City Center
04:19PM 39.1072 -88.7125 281° West 504 580 34,000  Level Kansas City Center
04:20PM 39.1389 -88.9253 281° West 505 581 34,000  Level Kansas City Center
04:21PM 39.1667 -89.1019 282° West 507 583 34,000  Level Kansas City Center
04:22PM 39.1922 -89.2783 281° West 505 581 34,000  Level Kansas City Center
04:23PM 39.2175 -89.4544 281° West 503 579 34,000  Level Kansas City Center
04:24PM 39.2431 -89.6317 281° West 505 581 34,000  Level Kansas City Center
04:25PM 39.2675 -89.8086 280° West 505 581 34,000  Level Kansas City Center
04:26PM 39.2967 -90.0203 280° West 505 581 34,000  Level Kansas City Center
04:27PM 39.3217 -90.1978 280° West 507 583 34,000  Level Kansas City Center
04:28PM 39.3456 -90.3764 280° West 509 586 34,000  Level Kansas City Center
04:30PM 39.3686 -90.5533 280° West 507 583 34,000  Level Kansas City Center
04:31PM 39.3889 -90.7675 277° West 504 580 34,000  Level Kansas City Center
04:32PM 39.4058 -90.9439 277° West 501 577 34,000  Level Kansas City Center
04:33PM 39.4225 -91.1200 277° West 498 573 34,000  Level Kansas City Center
04:34PM 39.4375 -91.2942 276° West 493 567 34,000  Level Kansas City Center
04:35PM 39.4539 -91.4647 277° West 485 558 34,000  Level Kansas City Center
04:36PM 39.4681 -91.6339 276° West 479 551 34,000  Level Kansas City Center
04:37PM 39.4847 -91.8244 277° West 474 545 34,000  Level Kansas City Center
04:38PM 39.4992 -91.9931 276° West 473 544 34,000  Level Kansas City Center
04:39PM 39.5081 -92.1600 274° West 468 539 34,000  Level Kansas City Center
04:40PM 39.5158 -92.3247 274° West 464 534 34,000  Level Kansas City Center
04:41PM 39.5253 -92.5222 274° West 461 531 34,000  Level Kansas City Center
04:42PM 39.5328 -92.6886 273° West 461 531 34,000  Level Kansas City Center
04:43PM 39.5397 -92.8497 273° West 456 525 34,000  Level Kansas City Center
04:44PM 39.5461 -93.0097 273° West 450 518 34,000  Level Kansas City Center
04:46PM 39.5597 -93.3675 273° West 452 520 34,000  Level Kansas City Center
04:47PM 39.5669 -93.5300 273° West 457 526 34,000  Level Kansas City Center
04:48PM 39.5733 -93.6911 273° West 451 519 34,000  Level Kansas City Center
04:49PM 39.5789 -93.8608 272° West 448 516 34,000  Level Kansas City Center
04:50PM 39.5842 -94.0167 273° West 452 520 34,000  Level Kansas City Center
04:51PM 39.5900 -94.1989 272° West 453 521 34,000 60 Level Kansas City Center
04:52PM 39.5950 -94.3542 272° West 450 518 34,200 240 Climbing Kansas City Center
04:53PM 39.5889 -94.5375 268° West 463 533 34,500 720 Climbing Kansas City Center
04:54PM 39.5667 -94.6931 260° West 459 528 35,800 720 Climbing Kansas City Center
04:55PM 39.5431 -94.8692 260° West 448 516 36,000 60 Climbing Kansas City Center
04:56PM 39.5208 -95.0200 259° West 448 516 36,000  Level Kansas City Center
04:57PM 39.4928 -95.2036 259° West 451 519 36,000  Level Kansas City Center
04:58PM 39.4689 -95.3608 259° West 448 516 36,000  Level Kansas City Center
05:00PM 39.4447 -95.5200 259° West 446 513 36,000  Level Kansas City Center
05:01PM 39.4214 -95.6675 258° West 442 509 36,000  Level Kansas City Center
05:02PM 39.3933 -95.8406 258° West 444 511 36,000  Level Kansas City Center
05:03PM 39.3703 -95.9894 259° West 443 510 36,000  Level Kansas City Center
05:04PM 39.3436 -96.1533 258° West 440 506 36,100  Climbing Kansas City Center
05:05PM 39.3197 -96.3061 259° West 437 503 36,000 -60 Descending Kansas City Center
05:06PM 39.2950 -96.4569 258° West 432 497 36,000  Level Kansas City Center
05:07PM 39.2686 -96.6211 258° West 429 494 36,000  Level Kansas City Center
05:08PM 39.2406 -96.7869 258° West 426 490 36,000  Level Kansas City Center
05:09PM 39.2169 -96.9286 258° West 424 488 36,000  Level Kansas City Center
05:10PM 39.1892 -97.0928 258° West 421 484 36,000  Level Kansas City Center
05:11PM 39.1661 -97.2328 258° West 418 481 36,000  Level Kansas City Center
05:12PM 39.1381 -97.3992 258° West 425 489 36,000  Level Kansas City Center
05:13PM 39.1131 -97.5431 257° West 430 495 36,100  Climbing Kansas City Center
05:14PM 39.0836 -97.7117 257° West 431 496 36,100 -60 Level Kansas City Center
05:15PM 39.0586 -97.8531 257° West 425 489 36,000 -60 Descending Kansas City Center
05:16PM 39.0339 -97.9989 258° West 424 488 36,000  Level Kansas City Center
05:17PM 39.0081 -98.1419 257° West 420 483 36,000  Level Kansas City Center
05:18PM 38.9836 -98.2786 257° West 405 466 36,000  Level Kansas City Center
05:19PM 38.9531 -98.4464 257° West 404 465 36,000  Level Kansas City Center
05:20PM 38.9275 -98.5850 257° West 401 461 36,000  Level Kansas City Center
05:21PM 38.9025 -98.7236 257° West 400 460 36,000  Level Kansas City Center
05:23PM 38.8600 -98.9447 256° West 399 459 36,000  Level Denver Center
05:23PM 38.8514 -99.0006 259° West 400 460 36,000  Level Kansas City Center
05:24PM 38.8264 -99.1389 257° West 401 461 36,000  Level Kansas City Center
05:25PM 38.7947 -99.3050 256° West 400 460 36,000  Level Kansas City Center
05:26PM 38.7675 -99.4419 256° West 398 458 36,000  Level Kansas City Center
05:27PM 38.7564 -99.4958 255° West 399 459 36,000  Level Denver Center
05:28PM 38.7264 -99.6486 256° West 398 458 36,000  Level Denver Center
05:29PM 38.7008 -99.7800 256° West 399 459 36,000  Level Denver Center
05:31PM 38.6597 -100.0008 257° West 397 457 36,000  Level Kansas City Center
05:31PM 38.6453 -100.0628 253° West 395 455 36,000  Level Denver Center
05:32PM 38.6150 -100.2161 256° West 398 458 36,000  Level Denver Center
05:33PM 38.5889 -100.3483 256° West 402 463 36,000  Level Denver Center
05:34PM 38.5581 -100.5044 256° West 406 467 36,000  Level Denver Center
05:35PM 38.5303 -100.6369 255° West 406 467 36,000  Level Denver Center
05:36PM 38.4992 -100.7925 256° West 407 468 36,000  Level Denver Center
05:37PM 38.4728 -100.9231 256° West 400 460 36,000  Level Denver Center
05:38PM 38.4414 -101.0742 255° West 396 456 36,000  Level Denver Center
05:39PM 38.4142 -101.2036 255° West 395 455 36,000  Level Denver Center
05:40PM 38.3781 -101.3764 255° West 398 458 36,000  Level Denver Center
05:41PM 38.3500 -101.5058 255° West 399 459 36,000  Level Denver Center
05:43PM 38.3186 -101.6594 255° West 402 463 36,100  Climbing Denver Center
05:44PM 38.2908 -101.7881 255° West 396 456 36,000 -60 Descending Denver Center
05:46PM 38.2317 -102.0633 255° West 390 449 36,000  Level Denver Center
05:47PM 38.2000 -102.2117 255° West 391 450 36,000  Level Denver Center
05:48PM 38.1714 -102.3389 254° West 393 452 36,000  Level Denver Center
05:49PM 38.1381 -102.4894 254° West 396 456 36,000  Level Denver Center
05:50PM 38.1103 -102.6178 255° West 395 455 36,000  Level Denver Center
05:51PM 38.0814 -102.7475 254° West 398 458 36,000  Level Denver Center
05:52PM 38.0475 -102.8983 254° West 397 457 36,000  Level Denver Center
05:53PM 38.0167 -103.0353 254° West 394 453 36,000  Level Denver Center
05:54PM 37.9864 -103.1647 254° West 399 459 36,000  Level Denver Center
05:55PM 37.9528 -103.3147 254° West 397 457 36,000  Level Denver Center
05:56PM 37.9228 -103.4467 254° West 406 467 36,000  Level Denver Center
05:57PM 37.8875 -103.5986 254° West 405 466 36,000  Level Denver Center
05:58PM 37.8572 -103.7289 254° West 404 465 36,000  Level Denver Center
05:59PM 37.8225 -103.8789 254° West 401 461 36,000  Level Denver Center
06:00PM 37.7925 -104.0078 254° West 403 464 36,000  Level Denver Center
06:01PM 37.7558 -104.1578 253° West 406 467 36,000  Level Denver Center
06:02PM 37.7253 -104.2861 253° West 404 465 36,000  Level Denver Center
06:03PM 37.6894 -104.4375 253° West 405 466 36,000  Level Denver Center
06:04PM 37.6581 -104.5672 253° West 405 466 36,000  Level Denver Center
06:05PM 37.6325 -104.6733 253° West 400 460 36,000  Level Denver Center
06:06PM 37.5906 -104.8444 253° West 401 461 36,000  Level Denver Center
06:07PM 37.5525 -104.9942 252° West 402 463 36,000  Level Denver Center
06:08PM 37.5219 -105.1239 253° West 403 464 36,000  Level Denver Center
06:09PM 37.4858 -105.2733 250° West 406 467 36,000  Level Denver Center
06:10PM 37.4718 -105.2933 250° West  Level FlightAware Approximate
06:10PM 37.4525 -105.4014 252° West 404 465 36,000  Level Denver Center
06:11PM 37.4211 -105.5300 253° West 403 464 36,000  Level Denver Center
06:12PM 37.3831 -105.6778 252° West 399 459 36,000  Level Denver Center
06:13PM 37.3514 -105.8050 253° West 399 459 36,000  Level Denver Center
06:14PM 37.3228 -105.9561 257° West 398 458 36,000  Level Denver Center
06:15PM 37.2975 -106.0864 256° West 402 463 36,000  Level Denver Center
06:17PM 37.2683 -106.2386 257° West 402 463 36,000  Level Denver Center
06:18PM 37.2442 -106.3683 257° West 401 461 36,000  Level Denver Center
06:19PM 37.2147 -106.5186 256° West 398 458 36,000  Level Denver Center
06:20PM 37.1897 -106.6483 256° West 399 459 36,000  Level Denver Center
06:21PM 37.1614 -106.7981 257° West 395 455 36,000  Level Denver Center
06:22PM 37.1364 -106.9253 256° West 395 455 36,000  Level Denver Center
06:23PM 37.1114 -107.0533 256° West 395 455 36,000  Level Denver Center
06:24PM 37.0811 -107.2014 256° West 395 455 36,000  Level Denver Center
06:25PM 37.0558 -107.3292 256° West 394 453 36,000  Level Denver Center
06:26PM 37.0258 -107.4775 256° West 396 456 36,000  Level Denver Center
06:27PM 37.0003 -107.6047 256° West 395 455 36,000  Level Denver Center
06:28PM 36.9661 -107.7753 256° West 396 456 36,000  Level Denver Center
06:29PM 36.9394 -107.9022 255° West 394 453 36,000  Level Denver Center
06:30PM 36.9086 -108.0503 255° West 395 455 36,000  Level Denver Center
06:31PM 36.8831 -108.1792 256° West 398 458 36,000  Level Denver Center
06:32PM 36.8508 -108.3267 255° West 396 456 36,000  Level Denver Center
06:33PM 36.8244 -108.4553 256° West 397 457 36,000  Level Denver Center
06:35PM 36.7844 -108.6321 254° West  Level FlightAware Approximate
06:35PM 36.7661 -108.7281 254° West 394 453 36,000  Level Denver Center
06:36PM 36.7350 -108.8739 255° West 392 451 36,000  Level Denver Center
06:37PM 36.7083 -108.9983 255° West 390 449 36,000  Level Denver Center
06:38PM 36.6772 -109.1442 255° West 392 451 36,000  Level Denver Center
06:39PM 36.6494 -109.2703 255° West 394 453 36,000  Level Denver Center
06:40PM 36.6172 -109.4161 255° West 394 453 36,000  Level Denver Center
06:41PM 36.5894 -109.5408 255° West 391 450 36,000  Level Denver Center
06:43PM 36.5569 -109.6861 254° West 392 451 36,000  Level Denver Center
06:44PM 36.5297 -109.8111 255° West 392 451 36,000  Level Denver Center
06:45PM 36.5003 -109.9397 254° West 402 463 36,100  Climbing Denver Center
06:46PM 36.4664 -110.0846 254° West  Level FlightAware Approximate
06:47PM 36.4386 -110.2175 254° West 395 455 36,000  Level Denver Center
06:48PM 36.4075 -110.3506 254° West 399 459 36,000  Level Denver Center
06:49PM 36.3783 -110.4822 255° West 398 458 36,000  Level Denver Center
06:50PM 36.3483 -110.6103 254° West 392 451 36,000 -60 Level Denver Center
06:51PM 36.3100 -110.7644 253° West 390 449 35,900  Descending Denver Center
06:52PM 36.2803 -110.8931 254° West 389 448 36,000  Climbing Denver Center
06:53PM 36.2508 -111.0211 254° West 387 445 36,000  Level Denver Center
06:54PM 36.2211 -111.1500 254° West 389 448 36,000  Level Denver Center
06:55PM 36.1897 -111.2786 253° West 389 448 36,000  Level Denver Center
06:56PM 36.1572 -111.4094 253° West 394 453 36,000  Level Denver Center
06:57PM 36.1286 -111.5364 254° West 388 447 36,000  Level Denver Center
06:58PM 36.1033 -111.6419 254° West 394 453 36,000  Level Denver Center
06:59PM 36.0589 -111.8225 253° West 393 452 36,000  Level Denver Center
07:00PM 36.0267 -111.9544 253° West 397 457 36,000  Level Denver Center
07:01PM 35.9931 -112.0853 252° West 396 456 36,000  Level Los Angeles Center
07:02PM 35.9611 -112.2150 253° West 397 457 36,000  Level Los Angeles Center
07:03PM 35.9289 -112.3439 253° West 394 453 36,000  Level Los Angeles Center
07:04PM 35.8964 -112.4725 253° West 396 456 36,000  Level Los Angeles Center
07:05PM 35.8653 -112.6011 253° West 395 455 36,000  Level Los Angeles Center
07:06PM 35.8269 -112.7561 253° West 397 457 36,000  Level Los Angeles Center
07:07PM 35.7939 -112.8839 252° West 396 456 36,000  Level Los Angeles Center
07:08PM 35.7611 -113.0144 253° West 401 461 36,000  Level Los Angeles Center
07:09PM 35.7222 -113.1689 253° West 401 461 36,000  Level Los Angeles Center
07:11PM 35.6819 -113.3233 252° West 400 460 36,000  Level Los Angeles Center
07:12PM 35.6478 -113.4519 252° West 401 461 36,000  Level Los Angeles Center
07:13PM 35.6111 -113.5817 251° West 405 466 36,000  Level Los Angeles Center
07:14PM 35.5600 -113.7036 243° Southwest 403 464 36,000  Level Los Angeles Center
07:15PM 35.5097 -113.8269 243° Southwest 408 470 36,000  Level Los Angeles Center
07:16PM 35.4492 -113.9742 243° Southwest 405 466 36,000  Level Los Angeles Center
07:17PM 35.4056 -114.0839 244° Southwest 402 463 36,000  Level Los Angeles Center
07:18PM 35.3447 -114.2311 243° Southwest 403 464 36,000  Level Los Angeles Center
07:19PM 35.2939 -114.3544 243° Southwest 403 464 36,000  Level Los Angeles Center
07:20PM 35.2431 -114.4789 243° Southwest 407 468 36,000  Level Los Angeles Center
07:21PM 35.1906 -114.6028 243° Southwest 409 471 36,000  Level Los Angeles Center
07:22PM 35.1389 -114.7267 243° Southwest 408 470 36,000  Level Los Angeles Center
07:23PM 35.0881 -114.8497 243° Southwest 406 467 36,000  Level Los Angeles Center
07:24PM 35.0358 -114.9731 243° Southwest 408 470 36,000 -660 Level Los Angeles Center
07:25PM 34.9742 -115.1200 243° Southwest 405 466 34,700 -1,020 Descending Los Angeles Center
07:26PM 34.9228 -115.2428 243° Southwest 406 467 34,000 -360 Descending Los Angeles Center
07:27PM 34.8697 -115.3639 242° Southwest 405 466 34,000  Level Los Angeles Center
07:28PM 34.8175 -115.4861 243° Southwest 405 466 34,000  Level Los Angeles Center
07:29PM 34.7600 -115.6231 243° Southwest 412 474 34,100  Climbing Los Angeles Center
07:30PM 34.7067 -115.7458 242° Southwest 413 475 34,000 -60 Descending Los Angeles Center
07:31PM 34.6531 -115.8692 242° Southwest 413 475 34,000  Level Los Angeles Center
07:32PM 34.6017 -115.9922 243° Southwest 411 473 34,000  Level Los Angeles Center
07:33PM 34.5475 -116.1156 242° Southwest 413 475 34,000 -120 Level Los Angeles Center
07:34PM 34.4919 -116.2417 242° Southwest 416 479 33,800 -960 Descending Los Angeles Center
07:35PM 34.4372 -116.3608 241° Southwest 414 476 32,100 -1,980 Descending Los Angeles Center
07:36PM 34.3800 -116.4969 243° Southwest 391 450 29,800 -2,520 Descending Los Angeles Center
07:37PM 34.3286 -116.6125 242° Southwest 387 445 27,000 -2,580 Descending Los Angeles Center
07:38PM 34.2758 -116.7314 242° Southwest 396 456 24,500 -2,280 Descending Los Angeles Center
07:39PM 34.2236 -116.8486 242° Southwest 397 457 22,300 -2,040 Descending Los Angeles Center
07:40PM 34.1731 -116.9631 242° Southwest 391 450 20,300 -1,560 Descending Los Angeles Center
07:42PM 34.1167 -117.1000 244° Southwest 362 417 19,000 -1,080 Descending Southern California TRACON
07:43PM 34.0667 -117.2000 239° Southwest 359 413 18,100 -1,200 Descending Southern California TRACON
07:44PM 34.0500 -117.3167 260° West 338 389 16,600 -1,560 Descending Southern California TRACON
07:45PM 34.0333 -117.4167 259° West 318 366 15,000 -1,800 Descending Southern California TRACON
07:46PM 34.0167 -117.5167 259° West 310 357 13,000 -1,500 Descending Southern California TRACON
07:47PM 34.0167 -117.6333 270° West 395 455 12,000 -1,260 Descending Southern California TRACON
07:48PM 34.0000 -117.7333 259° West 298 343 10,500 -1,020 Descending Southern California TRACON
07:49PM 33.9833 -117.8333 259° West 317 365 10,000 -300 Descending Southern California TRACON
07:50PM 33.9833 -117.9500 270° West 318 366 10,000  Level Southern California TRACON
07:51PM 33.9667 -118.0667 260° West 317 365 10,000 -120 Level Southern California TRACON
07:52PM 33.9667 -118.1500 270° West 283 326 9,800 -540 Descending Southern California TRACON
07:53PM 33.9500 -118.2500 259° West 279 321 9,000 -660 Descending Southern California TRACON
07:53PM 33.9492 -118.2669 267° West 284 327 9,000 -780 Level Los Angeles Center
07:54PM 33.9094 -118.3403 237° Southwest 278 320 8,000 -540 Descending Los Angeles Center
07:55PM 33.8650 -118.3981 227° Southwest 248 285 7,900 -720 Descending Los Angeles Center
07:56PM 33.8467 -118.4664 252° West 207 238 6,600 -1,500 Descending Los Angeles Center
07:57PM 33.8428 -118.5317 266° West 196 226 4,800 -1,860 Descending Los Angeles Center
07:58PM 33.8667 -118.5853 298° West 202 232 2,900 -1,500 Descending Los Angeles Center
07:59PM 33.9169 -118.5678 16° North 193 222 1,800 -660 Descending Los Angeles Center
08:00PM 33.9253 -118.5081 80° East 181 208 1,600 -480 Descending Los Angeles Center
08:01PM 33.9303 -118.4583 83° East 139 160 800 -720 Descending Los Angeles Center
08:02PM 33.9422 -118.4111 73° East 160 184 100 -720 Descending Los Angeles Center